Time;durP1;ratioP1;P1;durP2;ratioP2;P2;SDS_P1;SDS_P2;PMS_P1;PMS_P2;Temp;Humidity;BMP_temperature;BMP_pressure;BME280_temperature;BME280_humidity;BME280_pressure;Samples;Min_cycle;Max_cycle;Signal;HPM_P1;HPM_P2
2024/01/06 00:02:27;;;;;;;0.10;0.10;;;;;;;;;;5044203;28;20144;-74
2024/01/06 00:04:54;;;;;;;0.93;0.85;;;;;;;;;;5044742;28;20399;-75
2024/01/06 00:07:22;;;;;;;0.32;0.32;;;;;;;;;;5044844;28;20059;-74
2024/01/06 00:09:50;;;;;;;0.10;0.10;;;;;;;;;;5045452;28;20073;-75
2024/01/06 00:12:18;;;;;;;1.55;1.45;;;;;;;;;;5044932;28;20296;-75
2024/01/06 00:14:46;;;;;;;0.10;0.10;;;;;;;;;;5041906;28;20037;-74
2024/01/06 00:17:13;;;;;;;2.60;2.40;;;;;;;;;;5045331;28;20103;-75
2024/01/06 00:19:41;;;;;;;1.15;1.15;;;;;;;;;;5046470;28;20053;-75
2024/01/06 00:22:08;;;;;;;1.42;0.68;;;;;;;;;;5041625;28;20591;-75
2024/01/06 00:27:37;;;;;;;1.25;0.95;;;;;;;;;;4943814;28;20109;-77
2024/01/06 00:30:07;;;;;;;0.10;0.10;;;;;;;;;;4942734;28;20043;-77
2024/01/06 00:32:35;;;;;;;0.68;0.68;;;;;;;;;;4944702;28;20047;-77
2024/01/06 00:35:05;;;;;;;0.30;0.30;;;;;;;;;;4937951;28;20047;-75
2024/01/06 00:37:32;;;;;;;0.85;0.85;;;;;;;;;;4940111;28;20043;-77
2024/01/06 00:40:00;;;;;;;0.10;0.10;;;;;;;;;;4936359;28;20062;-78
2024/01/06 00:42:28;;;;;;;0.85;0.75;;;;;;;;;;4941149;28;20058;-77
2024/01/06 00:44:56;;;;;;;0.32;0.32;;;;;;;;;;4956726;28;20513;-78
2024/01/06 00:47:24;;;;;;;0.10;0.10;;;;;;;;;;4948835;28;20062;-78
2024/01/06 00:49:51;;;;;;;0.82;0.82;;;;;;;;;;4954963;28;20051;-78
2024/01/06 00:52:20;;;;;;;0.10;0.10;;;;;;;;;;4954631;28;20051;-78
2024/01/06 00:54:48;;;;;;;1.35;1.30;;;;;;;;;;4956859;28;20056;-78
2024/01/06 00:57:16;;;;;;;2.08;1.98;;;;;;;;;;4952940;28;20332;-78
2024/01/06 00:59:43;;;;;;;0.65;0.63;;;;;;;;;;4954883;28;20457;-78
2024/01/06 01:02:11;;;;;;;2.03;1.70;;;;;;;;;;4946830;28;20051;-78
2024/01/06 01:04:39;;;;;;;0.10;0.10;;;;;;;;;;4941446;28;20138;-78
2024/01/06 01:07:07;;;;;;;0.10;0.10;;;;;;;;;;4958166;28;20047;-77
2024/01/06 01:09:35;;;;;;;1.40;1.20;;;;;;;;;;4953089;28;20050;-78
2024/01/06 01:12:03;;;;;;;9.65;5.05;;;;;;;;;;4958035;28;20564;-78
2024/01/06 01:14:30;;;;;;;0.38;0.38;;;;;;;;;;4954444;28;20425;-78
2024/01/06 01:16:58;;;;;;;0.13;0.13;;;;;;;;;;4957353;28;20082;-78
2024/01/06 01:19:26;;;;;;;1.75;0.95;;;;;;;;;;4957341;28;20043;-78
2024/01/06 01:21:55;;;;;;;0.15;0.15;;;;;;;;;;4960774;28;20078;-78
2024/01/06 01:24:23;;;;;;;0.17;0.17;;;;;;;;;;4959179;28;20054;-78
2024/01/06 01:26:51;;;;;;;0.57;0.57;;;;;;;;;;4953924;28;20505;-78
2024/01/06 01:29:20;;;;;;;0.22;0.22;;;;;;;;;;4964068;28;20579;-78
2024/01/06 01:31:47;;;;;;;0.10;0.10;;;;;;;;;;4958835;28;20047;-80
2024/01/06 01:34:15;;;;;;;0.35;0.35;;;;;;;;;;4986357;28;20043;-79
2024/01/06 01:36:43;;;;;;;0.57;0.57;;;;;;;;;;4965805;28;20420;-78
2024/01/06 01:39:11;;;;;;;0.30;0.30;;;;;;;;;;4948881;28;20134;-78
2024/01/06 01:41:40;;;;;;;0.28;0.28;;;;;;;;;;4977251;28;20329;-78
2024/01/06 01:44:08;;;;;;;0.20;0.20;;;;;;;;;;4961361;28;20129;-78
2024/01/06 01:46:35;;;;;;;0.70;0.70;;;;;;;;;;4957660;28;20063;-78
2024/01/06 01:49:03;;;;;;;0.10;0.10;;;;;;;;;;4958629;28;20051;-78
2024/01/06 01:51:33;;;;;;;1.63;1.52;;;;;;;;;;4981922;28;20522;-79
2024/01/06 01:54:05;;;;;;;0.77;0.75;;;;;;;;;;4963271;28;20098;-79
2024/01/06 01:56:36;;;;;;;4.82;1.58;;;;;;;;;;4965019;28;20125;-79
2024/01/06 01:59:06;;;;;;;1.20;0.90;;;;;;;;;;4965411;28;20055;-78
2024/01/06 02:01:34;;;;;;;5.68;1.25;;;;;;;;;;4957384;28;20055;-79
2024/01/06 02:04:02;;;;;;;0.30;0.30;;;;;;;;;;4962132;28;20059;-79
2024/01/06 02:06:30;;;;;;;0.57;0.57;;;;;;;;;;4959462;28;20059;-79
2024/01/06 02:08:58;;;;;;;0.63;0.63;;;;;;;;;;4960405;28;20055;-79
2024/01/06 02:11:25;;;;;;;6.05;1.13;;;;;;;;;;4949658;28;20058;-79
2024/01/06 02:13:53;;;;;;;0.30;0.30;;;;;;;;;;4951750;28;20122;-78
2024/01/06 02:16:20;;;;;;;0.68;0.68;;;;;;;;;;4957742;28;20047;-78
2024/01/06 02:18:49;;;;;;;0.10;0.10;;;;;;;;;;4958315;28;20047;-79
2024/01/06 02:21:18;;;;;;;0.40;0.40;;;;;;;;;;4948734;28;20058;-79
2024/01/06 02:23:45;;;;;;;0.10;0.10;;;;;;;;;;4962361;28;20054;-79
2024/01/06 02:26:14;;;;;;;2.10;1.95;;;;;;;;;;4958953;28;20051;-79
2024/01/06 02:28:47;;;;;;;0.10;0.10;;;;;;;;;;4964923;28;20070;-78
2024/01/06 02:31:15;;;;;;;3.10;0.65;;;;;;;;;;4956518;28;20507;-78
2024/01/06 02:33:43;;;;;;;0.10;0.10;;;;;;;;;;4953354;28;20050;-78
2024/01/06 02:36:11;;;;;;;15.93;14.70;;;;;;;;;;4942015;28;20617;-79
2024/01/06 02:38:39;;;;;;;0.60;0.60;;;;;;;;;;4940620;28;20047;-78
2024/01/06 02:41:06;;;;;;;0.30;0.30;;;;;;;;;;4940428;28;20047;-78
2024/01/06 02:43:34;;;;;;;0.10;0.10;;;;;;;;;;4954777;28;20126;-78
2024/01/06 02:46:01;;;;;;;0.17;0.17;;;;;;;;;;4972280;28;20080;-79
2024/01/06 02:48:30;;;;;;;0.25;0.25;;;;;;;;;;4938450;28;20050;-79
2024/01/06 02:50:58;;;;;;;0.10;0.10;;;;;;;;;;4944897;28;20043;-79
2024/01/06 02:53:26;;;;;;;0.10;0.10;;;;;;;;;;4940110;28;20126;-79
2024/01/06 02:55:54;;;;;;;0.90;0.90;;;;;;;;;;4939059;28;20493;-78
2024/01/06 02:58:22;;;;;;;1.65;1.45;;;;;;;;;;4941013;28;20114;-78
2024/01/06 03:00:49;;;;;;;1.77;1.67;;;;;;;;;;4940310;28;20063;-78
2024/01/06 03:03:17;;;;;;;0.50;0.50;;;;;;;;;;4970475;28;20051;-78
2024/01/06 03:05:48;;;;;;;1.10;1.00;;;;;;;;;;4939973;28;20051;-79
2024/01/06 03:08:17;;;;;;;0.10;0.10;;;;;;;;;;4936737;28;20138;-78
2024/01/06 03:10:44;;;;;;;0.80;0.80;;;;;;;;;;4939276;28;20095;-78
2024/01/06 03:13:12;;;;;;;1.75;1.65;;;;;;;;;;4939164;28;20047;-79
2024/01/06 03:15:40;;;;;;;0.57;0.57;;;;;;;;;;4940860;28;20055;-79
2024/01/06 03:18:08;;;;;;;0.65;0.65;;;;;;;;;;4939058;28;20545;-79
2024/01/06 03:20:36;;;;;;;0.40;0.40;;;;;;;;;;4943351;28;20389;-79
2024/01/06 03:23:04;;;;;;;0.95;0.35;;;;;;;;;;4936579;28;20519;-78
2024/01/06 03:25:31;;;;;;;0.10;0.10;;;;;;;;;;4956969;28;20070;-78
2024/01/06 03:27:59;;;;;;;1.92;1.63;;;;;;;;;;4941103;28;20071;-78
2024/01/06 03:30:27;;;;;;;0.10;0.10;;;;;;;;;;4942331;28;20114;-78
2024/01/06 03:32:54;;;;;;;0.15;0.15;;;;;;;;;;4955923;28;20661;-78
2024/01/06 03:35:23;;;;;;;0.10;0.10;;;;;;;;;;4950663;28;20106;-78
2024/01/06 03:37:51;;;;;;;0.10;0.10;;;;;;;;;;4952320;28;20050;-78
2024/01/06 03:40:18;;;;;;;7.88;1.23;;;;;;;;;;4972504;28;20110;-79
2024/01/06 03:42:46;;;;;;;1.23;1.23;;;;;;;;;;4952960;28;20043;-78
2024/01/06 03:45:14;;;;;;;0.28;0.28;;;;;;;;;;4956889;28;20379;-78
2024/01/06 03:47:41;;;;;;;0.10;0.10;;;;;;;;;;4966574;28;20051;-78
2024/01/06 03:50:09;;;;;;;0.15;0.15;;;;;;;;;;4960583;28;20549;-79
2024/01/06 03:52:37;;;;;;;0.90;0.90;;;;;;;;;;4953812;28;20086;-78
2024/01/06 03:55:06;;;;;;;2.50;1.77;;;;;;;;;;4942870;28;20130;-78
2024/01/06 03:57:34;;;;;;;1.70;1.60;;;;;;;;;;4939737;28;20104;-78
2024/01/06 04:00:02;;;;;;;1.50;1.50;;;;;;;;;;4942767;28;20974;-78
2024/01/06 04:02:31;;;;;;;1.48;1.38;;;;;;;;;;4941680;28;20180;-77
2024/01/06 04:04:58;;;;;;;0.10;0.10;;;;;;;;;;4955396;28;20329;-77
2024/01/06 04:07:26;;;;;;;1.20;1.20;;;;;;;;;;4940581;28;20097;-77
2024/01/06 04:09:53;;;;;;;0.93;0.93;;;;;;;;;;4943781;28;20130;-77
2024/01/06 04:12:21;;;;;;;0.68;0.68;;;;;;;;;;4939205;28;20047;-77
2024/01/06 04:14:49;;;;;;;0.32;0.32;;;;;;;;;;4942218;28;20504;-78
2024/01/06 04:17:16;;;;;;;0.10;0.10;;;;;;;;;;4939446;28;20052;-77
2024/01/06 04:19:44;;;;;;;0.68;0.68;;;;;;;;;;4942118;28;20047;-77
2024/01/06 04:22:12;;;;;;;0.43;0.40;;;;;;;;;;4943465;28;20599;-78
2024/01/06 04:24:40;;;;;;;0.88;0.80;;;;;;;;;;4939897;28;20067;-77
2024/01/06 04:27:09;;;;;;;0.00;0.00;;;;;;;;;;4938642;28;20050;-77
2024/01/06 04:29:37;;;;;;;0.10;0.10;;;;;;;;;;4949714;28;20149;-77
2024/01/06 04:32:07;;;;;;;0.20;0.20;;;;;;;;;;4952440;28;20054;-78
2024/01/06 04:34:35;;;;;;;0.70;0.70;;;;;;;;;;4940706;28;20465;-77
2024/01/06 04:37:03;;;;;;;2.55;1.35;;;;;;;;;;4942874;28;20133;-78
2024/01/06 04:39:30;;;;;;;0.17;0.17;;;;;;;;;;4941320;28;20110;-78
2024/01/06 04:42:01;;;;;;;0.20;0.20;;;;;;;;;;4944149;28;20065;-77
2024/01/06 04:44:29;;;;;;;2.60;2.40;;;;;;;;;;4972293;28;20118;-78
2024/01/06 04:46:57;;;;;;;0.90;0.90;;;;;;;;;;4944502;28;20051;-78
2024/01/06 04:49:24;;;;;;;3.22;3.03;;;;;;;;;;4959052;28;20119;-77
2024/01/06 04:51:52;;;;;;;0.95;0.50;;;;;;;;;;4954487;28;20576;-77
2024/01/06 04:54:20;;;;;;;0.10;0.10;;;;;;;;;;4943843;28;20439;-77
2024/01/06 04:56:48;;;;;;;0.75;0.40;;;;;;;;;;4940515;28;20600;-77
2024/01/06 04:59:15;;;;;;;0.55;0.55;;;;;;;;;;4949031;28;20062;-78
2024/01/06 05:01:43;;;;;;;0.10;0.10;;;;;;;;;;4953565;28;20082;-77
2024/01/06 05:04:12;;;;;;;0.25;0.25;;;;;;;;;;4955879;28;20059;-77
2024/01/06 05:06:40;;;;;;;0.60;0.43;;;;;;;;;;4951466;28;20153;-78
2024/01/06 05:09:08;;;;;;;1.70;1.60;;;;;;;;;;4956877;28;20058;-77
2024/01/06 05:11:36;;;;;;;0.25;0.25;;;;;;;;;;4940718;28;20054;-77
2024/01/06 05:14:03;;;;;;;0.17;0.17;;;;;;;;;;4940772;28;20055;-77
2024/01/06 05:16:31;;;;;;;29.35;24.30;;;;;;;;;;4955737;28;20075;-77
2024/01/06 05:18:59;;;;;;;0.35;0.35;;;;;;;;;;4939345;28;20673;-78
2024/01/06 05:21:27;;;;;;;0.10;0.10;;;;;;;;;;4947102;28;20122;-78
2024/01/06 05:23:54;;;;;;;0.40;0.40;;;;;;;;;;4959432;28;20066;-77
2024/01/06 05:26:24;;;;;;;2.70;2.50;;;;;;;;;;4937378;28;20134;-77
2024/01/06 05:28:52;;;;;;;1.15;0.93;;;;;;;;;;4961745;28;20078;-77
2024/01/06 05:31:20;;;;;;;1.02;1.02;;;;;;;;;;4958859;28;20051;-78
2024/01/06 05:33:48;;;;;;;2.65;2.45;;;;;;;;;;4961083;28;20071;-78
2024/01/06 05:36:19;;;;;;;1.80;1.48;;;;;;;;;;4959695;28;20523;-78
2024/01/06 05:38:47;;;;;;;0.63;0.63;;;;;;;;;;4955562;28;20271;-77
2024/01/06 05:41:19;;;;;;;0.50;0.50;;;;;;;;;;4961935;28;20543;-78
2024/01/06 05:43:47;;;;;;;0.15;0.15;;;;;;;;;;4953169;28;20059;-78
2024/01/06 05:46:22;;;;;;;0.65;0.65;;;;;;;;;;4939447;28;20069;-78
2024/01/06 05:48:50;;;;;;;1.58;1.42;;;;;;;;;;4939611;28;20043;-77
2024/01/06 05:51:18;;;;;;;1.77;1.05;;;;;;;;;;4941079;28;20047;-78
2024/01/06 05:53:46;;;;;;;2.65;1.50;;;;;;;;;;4939444;28;20058;-77
2024/01/06 05:56:24;;;;;;;0.10;0.10;;;;;;;;;;4924685;28;20051;-77
2024/01/06 05:58:52;;;;;;;0.10;0.10;;;;;;;;;;4928091;28;20062;-78
2024/01/06 06:01:21;;;;;;;0.20;0.20;;;;;;;;;;4938882;28;20117;-78
2024/01/06 06:03:51;;;;;;;0.20;0.20;;;;;;;;;;4938359;28;20054;-77
2024/01/06 06:06:19;;;;;;;0.20;0.20;;;;;;;;;;4942237;28;20154;-77
2024/01/06 06:08:48;;;;;;;0.75;0.55;;;;;;;;;;4926631;28;20111;-78
2024/01/06 06:11:16;;;;;;;0.35;0.35;;;;;;;;;;4975764;28;20482;-78
2024/01/06 06:13:44;;;;;;;0.30;0.30;;;;;;;;;;4942956;28;20050;-78
2024/01/06 06:16:12;;;;;;;0.10;0.10;;;;;;;;;;4940655;28;20130;-77
2024/01/06 06:18:40;;;;;;;0.10;0.10;;;;;;;;;;4938276;28;20382;-77
2024/01/06 06:21:09;;;;;;;0.43;0.43;;;;;;;;;;4940811;28;20051;-78
2024/01/06 06:23:37;;;;;;;3.53;0.55;;;;;;;;;;4927516;28;20489;-77
2024/01/06 06:26:07;;;;;;;0.30;0.30;;;;;;;;;;4937739;28;20062;-77
2024/01/06 06:28:36;;;;;;;1.48;1.38;;;;;;;;;;4939801;28;20525;-77
2024/01/06 06:31:04;;;;;;;0.20;0.20;;;;;;;;;;4971822;28;20062;-77
2024/01/06 06:33:33;;;;;;;0.40;0.40;;;;;;;;;;4940950;28;20457;-77
2024/01/06 06:36:02;;;;;;;0.70;0.70;;;;;;;;;;4941494;28;20166;-78
2024/01/06 06:38:29;;;;;;;0.57;0.57;;;;;;;;;;4928810;28;20051;-78
2024/01/06 06:40:57;;;;;;;0.22;0.22;;;;;;;;;;4938343;28;20054;-78
2024/01/06 06:43:25;;;;;;;0.13;0.13;;;;;;;;;;4942260;28;20071;-77
2024/01/06 06:45:53;;;;;;;0.68;0.68;;;;;;;;;;4940250;28;20395;-77
2024/01/06 06:48:22;;;;;;;0.40;0.40;;;;;;;;;;4943201;28;20047;-78
2024/01/06 06:50:49;;;;;;;0.50;0.50;;;;;;;;;;4949879;28;20051;-77
2024/01/06 06:53:17;;;;;;;0.20;0.20;;;;;;;;;;4939398;28;20118;-77
2024/01/06 06:55:45;;;;;;;0.50;0.50;;;;;;;;;;4915571;28;20060;-77
2024/01/06 06:58:12;;;;;;;0.10;0.10;;;;;;;;;;4928703;28;20047;-78
2024/01/06 07:00:40;;;;;;;0.13;0.13;;;;;;;;;;4936656;28;20134;-77
2024/01/06 07:03:08;;;;;;;1.08;1.08;;;;;;;;;;4964188;28;20101;-77
2024/01/06 07:05:36;;;;;;;1.02;1.02;;;;;;;;;;4939933;28;20145;-77
2024/01/06 07:08:04;;;;;;;0.15;0.15;;;;;;;;;;4960020;28;20042;-77
2024/01/06 07:10:31;;;;;;;1.45;1.45;;;;;;;;;;4954547;28;20497;-77
2024/01/06 07:12:59;;;;;;;4.63;4.43;;;;;;;;;;4929864;28;20137;-77
2024/01/06 07:15:27;;;;;;;0.75;0.75;;;;;;;;;;4941794;28;20461;-77
2024/01/06 07:17:55;;;;;;;0.10;0.10;;;;;;;;;;4944583;28;20062;-78
2024/01/06 07:20:23;;;;;;;1.45;1.10;;;;;;;;;;4954691;28;20043;-76
2024/01/06 07:22:50;;;;;;;0.30;0.30;;;;;;;;;;4944861;28;20055;-78
2024/01/06 07:25:18;;;;;;;0.52;0.52;;;;;;;;;;4930107;28;20066;-77
2024/01/06 07:27:46;;;;;;;0.70;0.70;;;;;;;;;;4930945;28;20059;-77
2024/01/06 07:30:14;;;;;;;0.57;0.57;;;;;;;;;;4926166;28;20051;-77
2024/01/06 07:32:42;;;;;;;0.20;0.20;;;;;;;;;;4913493;28;20036;-78
2024/01/06 07:35:10;;;;;;;0.20;0.20;;;;;;;;;;4945665;28;20058;-78
2024/01/06 07:37:38;;;;;;;0.20;0.20;;;;;;;;;;4953666;28;20561;-77
2024/01/06 07:40:07;;;;;;;0.20;0.20;;;;;;;;;;4930892;28;26494;-78
2024/01/06 07:42:34;;;;;;;0.10;0.10;;;;;;;;;;4928127;28;20085;-77
2024/01/06 07:45:03;;;;;;;0.10;0.10;;;;;;;;;;4944916;28;20043;-78
2024/01/06 07:47:30;;;;;;;0.20;0.20;;;;;;;;;;4936946;28;20887;-77
2024/01/06 07:49:59;;;;;;;0.17;0.17;;;;;;;;;;4944454;28;20370;-77
2024/01/06 07:52:27;;;;;;;0.10;0.10;;;;;;;;;;4943092;28;20097;-78
2024/01/06 07:54:55;;;;;;;0.10;0.10;;;;;;;;;;4938509;28;20453;-77
2024/01/06 07:57:23;;;;;;;0.15;0.15;;;;;;;;;;4930197;28;20058;-78
2024/01/06 07:59:50;;;;;;;0.10;0.10;;;;;;;;;;4946706;28;20055;-78
2024/01/06 08:02:18;;;;;;;0.10;0.10;;;;;;;;;;4937111;28;20055;-78
2024/01/06 08:04:46;;;;;;;0.90;0.90;;;;;;;;;;4936781;28;20051;-77
2024/01/06 08:07:14;;;;;;;0.10;0.10;;;;;;;;;;4928249;28;20063;-78
2024/01/06 08:09:42;;;;;;;0.73;0.73;;;;;;;;;;4942574;28;20062;-77
2024/01/06 08:12:10;;;;;;;1.00;0.47;;;;;;;;;;4958124;28;20070;-77
2024/01/06 08:14:38;;;;;;;0.13;0.13;;;;;;;;;;4954768;28;20176;-77
2024/01/06 08:17:06;;;;;;;0.93;0.93;;;;;;;;;;4955018;28;20122;-78
2024/01/06 08:19:35;;;;;;;0.82;0.82;;;;;;;;;;4934634;28;20146;-78
2024/01/06 08:22:03;;;;;;;0.10;0.10;;;;;;;;;;4949886;28;20047;-78
2024/01/06 08:24:31;;;;;;;0.10;0.10;;;;;;;;;;4940430;28;20047;-78
2024/01/06 08:26:59;;;;;;;0.10;0.10;;;;;;;;;;4934793;28;20051;-78
2024/01/06 08:29:27;;;;;;;0.55;0.55;;;;;;;;;;4945298;28;20531;-77
2024/01/06 08:31:54;;;;;;;1.00;0.52;;;;;;;;;;4939254;28;20047;-78
2024/01/06 08:34:23;;;;;;;1.00;1.00;;;;;;;;;;4942701;28;20043;-78
2024/01/06 08:36:50;;;;;;;0.38;0.38;;;;;;;;;;4943632;28;20087;-78
2024/01/06 08:39:18;;;;;;;0.65;0.65;;;;;;;;;;4973644;28;21501;-78
2024/01/06 08:41:46;;;;;;;0.13;0.13;;;;;;;;;;4929814;28;20044;-78
2024/01/06 08:44:14;;;;;;;0.10;0.10;;;;;;;;;;4943054;28;20143;-78
2024/01/06 08:46:41;;;;;;;1.15;1.10;;;;;;;;;;4964768;23;20647;-87
2024/01/06 08:49:09;;;;;;;1.50;1.40;;;;;;;;;;4960891;28;20047;-87
2024/01/06 08:51:36;;;;;;;0.43;0.43;;;;;;;;;;4962520;28;20932;-87
2024/01/06 08:54:05;;;;;;;0.20;0.20;;;;;;;;;;4962368;28;20054;-87
2024/01/06 08:56:34;;;;;;;0.10;0.10;;;;;;;;;;4975276;28;20074;-87
2024/01/06 08:59:01;;;;;;;0.63;0.63;;;;;;;;;;4993323;28;23352;-86
2024/01/06 09:01:29;;;;;;;0.93;0.60;;;;;;;;;;4996730;28;20053;-86
2024/01/06 09:03:56;;;;;;;0.17;0.17;;;;;;;;;;4984230;28;20047;-87
2024/01/06 09:06:24;;;;;;;0.30;0.30;;;;;;;;;;4963202;28;20049;-86
2024/01/06 09:08:51;;;;;;;0.00;0.00;;;;;;;;;;4978532;28;20054;-87
2024/01/06 09:11:19;;;;;;;0.30;0.30;;;;;;;;;;4967977;28;20054;-87
2024/01/06 09:13:46;;;;;;;0.30;0.30;;;;;;;;;;4958773;28;20042;-87
2024/01/06 09:16:13;;;;;;;0.40;0.40;;;;;;;;;;4945214;28;20134;-87
2024/01/06 09:18:41;;;;;;;0.65;0.65;;;;;;;;;;4960409;28;20086;-88
2024/01/06 09:21:08;;;;;;;0.13;0.13;;;;;;;;;;4959919;28;20057;-86
2024/01/06 09:23:35;;;;;;;0.38;0.38;;;;;;;;;;4979131;28;20059;-87
2024/01/06 09:26:03;;;;;;;0.20;0.20;;;;;;;;;;4961135;28;20500;-87
2024/01/06 09:28:30;;;;;;;0.10;0.10;;;;;;;;;;4962123;28;20543;-87
2024/01/06 09:30:58;;;;;;;0.20;0.20;;;;;;;;;;4950242;28;20058;-86
2024/01/06 09:33:25;;;;;;;0.10;0.10;;;;;;;;;;4969975;28;20040;-87
2024/01/06 09:35:53;;;;;;;6.32;0.75;;;;;;;;;;4969506;28;20049;-88
2024/01/06 09:38:21;;;;;;;0.65;0.63;;;;;;;;;;4961349;28;20059;-87
2024/01/06 09:40:49;;;;;;;0.22;0.22;;;;;;;;;;4972429;28;20073;-87
2024/01/06 09:43:17;;;;;;;0.10;0.10;;;;;;;;;;4972714;28;20050;-88
2024/01/06 09:45:47;;;;;;;0.10;0.10;;;;;;;;;;4987526;28;20043;-86
2024/01/06 09:48:14;;;;;;;0.40;0.40;;;;;;;;;;4988610;28;20035;-86
2024/01/06 09:50:44;;;;;;;0.10;0.10;;;;;;;;;;4981299;28;20105;-86
2024/01/06 09:53:12;;;;;;;1.48;1.38;;;;;;;;;;4948970;28;20038;-86
2024/01/06 09:55:39;;;;;;;0.32;0.32;;;;;;;;;;4957875;28;20106;-87
2024/01/06 09:58:07;;;;;;;0.10;0.10;;;;;;;;;;4961800;28;20055;-86
2024/01/06 10:00:35;;;;;;;0.90;0.90;;;;;;;;;;4954780;28;20042;-86
2024/01/06 10:03:03;;;;;;;0.13;0.13;;;;;;;;;;4956621;28;20059;-87
2024/01/06 10:05:30;;;;;;;0.10;0.10;;;;;;;;;;4964525;28;20513;-85
2024/01/06 10:07:59;;;;;;;0.10;0.10;;;;;;;;;;4962945;28;20051;-87
2024/01/06 10:10:27;;;;;;;0.65;0.65;;;;;;;;;;4963382;28;20531;-86
2024/01/06 10:12:55;;;;;;;0.95;0.95;;;;;;;;;;4953222;28;20051;-86
2024/01/06 10:15:23;;;;;;;0.10;0.10;;;;;;;;;;4960300;28;20043;-87
2024/01/06 10:17:50;;;;;;;0.50;0.50;;;;;;;;;;4957048;28;20089;-85
2024/01/06 10:20:19;;;;;;;0.57;0.57;;;;;;;;;;4959099;28;20477;-86
2024/01/06 10:22:47;;;;;;;0.38;0.38;;;;;;;;;;4962214;28;20086;-87
2024/01/06 10:25:15;;;;;;;0.50;0.50;;;;;;;;;;4949924;28;20063;-87
2024/01/06 10:27:43;;;;;;;0.45;0.45;;;;;;;;;;4945795;28;20050;-86
2024/01/06 10:30:10;;;;;;;0.13;0.13;;;;;;;;;;4957785;28;20054;-86
2024/01/06 10:32:39;;;;;;;0.32;0.32;;;;;;;;;;4959239;28;20767;-87
2024/01/06 10:35:08;;;;;;;0.20;0.20;;;;;;;;;;4959574;28;20039;-87
2024/01/06 10:37:36;;;;;;;0.10;0.10;;;;;;;;;;4957019;28;20047;-86
2024/01/06 10:40:10;;;;;;;0.70;0.70;;;;;;;;;;4957931;28;20403;-87
2024/01/06 10:42:41;;;;;;;0.77;0.77;;;;;;;;;;4949047;28;20161;-86
2024/01/06 10:45:13;;;;;;;0.15;0.15;;;;;;;;;;4962997;28;20047;-86
2024/01/06 10:47:42;;;;;;;0.32;0.32;;;;;;;;;;4960670;28;20069;-86
2024/01/06 10:50:10;;;;;;;0.63;0.63;;;;;;;;;;4962991;28;20106;-86
2024/01/06 10:52:39;;;;;;;0.77;0.77;;;;;;;;;;4960414;28;20505;-85
2024/01/06 10:55:07;;;;;;;0.30;0.30;;;;;;;;;;4984949;28;20374;-86
2024/01/06 10:57:35;;;;;;;0.40;0.40;;;;;;;;;;4971021;28;20047;-86
2024/01/06 11:00:04;;;;;;;0.82;0.82;;;;;;;;;;4948671;28;20039;-86
2024/01/06 11:02:32;;;;;;;0.43;0.43;;;;;;;;;;4961982;28;20031;-86
2024/01/06 11:05:00;;;;;;;1.10;1.08;;;;;;;;;;4956189;28;20297;-85
2024/01/06 11:07:28;;;;;;;0.40;0.40;;;;;;;;;;4970628;28;20030;-86
2024/01/06 11:10:07;;;;;;;0.10;0.10;;;;;;;;;;4996915;28;20050;-85
2024/01/06 11:12:34;;;;;;;0.30;0.30;;;;;;;;;;4988279;28;20074;-84
2024/01/06 11:15:03;;;;;;;0.20;0.20;;;;;;;;;;4983296;28;20055;-85
2024/01/06 11:17:53;;;;;;;0.43;0.43;;;;;;;;;;4964659;28;20046;-85
2024/01/06 11:20:21;;;;;;;0.47;0.47;;;;;;;;;;4961097;28;20050;-85
2024/01/06 11:22:49;;;;;;;0.10;0.10;;;;;;;;;;4960920;28;20568;-85
2024/01/06 11:25:19;;;;;;;0.77;0.65;;;;;;;;;;4968778;28;20098;-85
2024/01/06 11:27:50;;;;;;;0.47;0.47;;;;;;;;;;4962096;28;20552;-84
2024/01/06 11:30:24;;;;;;;0.17;0.17;;;;;;;;;;4954003;28;20573;-85
2024/01/06 11:32:54;;;;;;;0.20;0.20;;;;;;;;;;4959975;28;20159;-85
2024/01/06 11:35:23;;;;;;;0.43;0.43;;;;;;;;;;4963800;28;20575;-84
2024/01/06 11:37:54;;;;;;;0.52;0.52;;;;;;;;;;4964548;28;20515;-84
2024/01/06 11:40:23;;;;;;;1.48;1.27;;;;;;;;;;4963551;28;20055;-85
2024/01/06 11:42:57;;;;;;;0.40;0.40;;;;;;;;;;4969025;28;20046;-84
2024/01/06 11:45:25;;;;;;;2.30;2.03;;;;;;;;;;4991169;28;20125;-85
2024/01/06 11:48:02;;;;;;;0.93;0.77;;;;;;;;;;4962495;28;20078;-85
2024/01/06 11:50:30;;;;;;;0.45;0.45;;;;;;;;;;4966203;28;20047;-85
2024/01/06 11:53:02;;;;;;;0.52;0.52;;;;;;;;;;4994431;28;20639;-84
2024/01/06 11:55:34;;;;;;;0.10;0.10;;;;;;;;;;4969119;28;20128;-85
2024/01/06 11:58:02;;;;;;;;;;;;;;;;;;4969231;28;20050;-85
2024/01/06 12:00:31;;;;;;;0.40;0.40;;;;;;;;;;4966781;28;19922;-85
2024/01/06 12:02:59;;;;;;;1.15;1.15;;;;;;;;;;4964784;28;20112;-85
2024/01/06 12:05:27;;;;;;;0.30;0.30;;;;;;;;;;4995507;28;20053;-85
2024/01/06 12:07:56;;;;;;;0.68;0.68;;;;;;;;;;4968770;28;20058;-84
2024/01/06 12:10:24;;;;;;;0.35;0.35;;;;;;;;;;4962560;28;20069;-85
2024/01/06 12:13:02;;;;;;;0.20;0.20;;;;;;;;;;4983804;28;20095;-85
2024/01/06 12:15:31;;;;;;;0.20;0.20;;;;;;;;;;4985870;28;20114;-84
2024/01/06 12:17:58;;;;;;;0.17;0.17;;;;;;;;;;4968958;28;20051;-85
2024/01/06 12:20:28;;;;;;;0.82;0.82;;;;;;;;;;4969245;28;20042;-85
2024/01/06 12:22:56;;;;;;;0.75;0.75;;;;;;;;;;4963704;28;20051;-85
2024/01/06 12:25:25;;;;;;;1.42;1.33;;;;;;;;;;4966180;28;20053;-85
2024/01/06 12:27:53;;;;;;;0.45;0.45;;;;;;;;;;4958885;28;20118;-85
2024/01/06 12:30:22;;;;;;;0.45;0.45;;;;;;;;;;4957513;28;20044;-85
2024/01/06 12:32:51;;;;;;;0.68;0.63;;;;;;;;;;4961510;28;20612;-84
2024/01/06 12:35:21;;;;;;;0.55;0.55;;;;;;;;;;4959926;28;20536;-84
2024/01/06 12:37:48;;;;;;;0.40;0.40;;;;;;;;;;4981457;28;20039;-84
2024/01/06 12:40:17;;;;;;;0.10;0.10;;;;;;;;;;4969655;28;20054;-84
2024/01/06 12:42:45;;;;;;;0.52;0.52;;;;;;;;;;4960728;28;20050;-85
2024/01/06 12:45:15;;;;;;;0.40;0.40;;;;;;;;;;4968106;28;20574;-86
2024/01/06 12:47:43;;;;;;;0.28;0.28;;;;;;;;;;4960679;28;20117;-85
2024/01/06 12:50:10;;;;;;;0.10;0.10;;;;;;;;;;4962122;28;20448;-85
2024/01/06 12:52:39;;;;;;;0.30;0.30;;;;;;;;;;4959480;28;20138;-85
2024/01/06 12:55:07;;;;;;;0.10;0.10;;;;;;;;;;4961427;28;20051;-85
2024/01/06 12:57:36;;;;;;;0.40;0.40;;;;;;;;;;4962800;28;20513;-86
2024/01/06 13:00:05;;;;;;;1.63;0.57;;;;;;;;;;4962158;28;20039;-85
2024/01/06 13:02:33;;;;;;;0.90;0.90;;;;;;;;;;4960849;28;20070;-85
2024/01/06 13:05:00;;;;;;;0.00;0.00;;;;;;;;;;4949986;28;20050;-86
2024/01/06 13:07:28;;;;;;;0.17;0.17;;;;;;;;;;4964380;28;20055;-86
2024/01/06 13:09:56;;;;;;;0.30;0.30;;;;;;;;;;4969116;28;20497;-84
2024/01/06 13:12:24;;;;;;;0.20;0.20;;;;;;;;;;4991129;28;20039;-84
2024/01/06 13:14:52;;;;;;;0.40;0.40;;;;;;;;;;4972437;28;20111;-85
2024/01/06 13:17:19;;;;;;;0.55;0.55;;;;;;;;;;4953254;28;20137;-86
2024/01/06 13:19:47;;;;;;;0.20;0.20;;;;;;;;;;4965445;28;20051;-86
2024/01/06 13:22:16;;;;;;;0.30;0.30;;;;;;;;;;4958157;28;20042;-86
2024/01/06 13:24:43;;;;;;;2.45;2.35;;;;;;;;;;4965101;28;20152;-86
2024/01/06 13:27:11;;;;;;;1.48;1.33;;;;;;;;;;4962712;28;20043;-86
2024/01/06 13:29:38;;;;;;;0.20;0.20;;;;;;;;;;4964061;28;20051;-85
2024/01/06 13:32:06;;;;;;;0.40;0.40;;;;;;;;;;4961701;28;20074;-85
2024/01/06 13:34:33;;;;;;;0.10;0.10;;;;;;;;;;4957870;28;20047;-86
2024/01/06 13:37:01;;;;;;;0.20;0.20;;;;;;;;;;4960495;28;20042;-86
2024/01/06 13:39:28;;;;;;;0.30;0.30;;;;;;;;;;4964011;28;20138;-85
2024/01/06 13:41:56;;;;;;;6.65;2.50;;;;;;;;;;4953042;28;20544;-86
2024/01/06 13:44:24;;;;;;;0.40;0.30;;;;;;;;;;4957751;28;20047;-86
2024/01/06 13:46:51;;;;;;;0.40;0.30;;;;;;;;;;4962416;28;20125;-86
2024/01/06 13:49:18;;;;;;;0.70;0.70;;;;;;;;;;4961313;28;20091;-86
2024/01/06 13:51:46;;;;;;;0.20;0.20;;;;;;;;;;4970037;28;20134;-86
2024/01/06 13:54:14;;;;;;;0.00;0.00;;;;;;;;;;4963226;28;20046;-86
2024/01/06 13:56:46;;;;;;;1.27;0.90;;;;;;;;;;4953819;28;20639;-86
2024/01/06 13:59:13;;;;;;;0.30;0.30;;;;;;;;;;4960124;28;20048;-86
2024/01/06 14:01:41;;;;;;;2.20;2.00;;;;;;;;;;4968356;28;20109;-87
2024/01/06 14:04:08;;;;;;;2.72;2.53;;;;;;;;;;4958665;28;20062;-86
2024/01/06 14:06:36;;;;;;;1.63;1.52;;;;;;;;;;4954711;28;20062;-86
2024/01/06 14:09:05;;;;;;;0.60;0.60;;;;;;;;;;4965198;28;20039;-87
2024/01/06 14:11:33;;;;;;;0.10;0.10;;;;;;;;;;4966964;28;20047;-86
2024/01/06 14:14:01;;;;;;;0.25;0.25;;;;;;;;;;4965173;28;20046;-87
2024/01/06 14:16:28;;;;;;;0.28;0.28;;;;;;;;;;4967134;28;20085;-86
2024/01/06 14:18:56;;;;;;;1.70;1.55;;;;;;;;;;4964327;28;20114;-86
2024/01/06 14:21:23;;;;;;;0.98;0.98;;;;;;;;;;4971424;28;20096;-87
2024/01/06 14:23:51;;;;;;;0.80;0.80;;;;;;;;;;4984856;28;20073;-85
2024/01/06 14:26:19;;;;;;;0.88;0.88;;;;;;;;;;4990627;28;20073;-86
2024/01/06 14:28:48;;;;;;;0.43;0.43;;;;;;;;;;4980637;28;20129;-86
2024/01/06 14:31:16;;;;;;;0.57;0.57;;;;;;;;;;4969869;28;20054;-86
2024/01/06 14:33:43;;;;;;;0.10;0.10;;;;;;;;;;4968744;28;20043;-87
2024/01/06 14:36:12;;;;;;;0.68;0.68;;;;;;;;;;4939273;28;20049;-85
2024/01/06 14:38:39;;;;;;;3.33;3.08;;;;;;;;;;4949758;28;20051;-87
2024/01/06 14:41:07;;;;;;;0.10;0.10;;;;;;;;;;4962527;28;20049;-86
2024/01/06 14:43:34;;;;;;;1.20;1.02;;;;;;;;;;4966529;28;20465;-84
2024/01/06 14:46:02;;;;;;;0.10;0.10;;;;;;;;;;4959501;28;20063;-85
2024/01/06 14:48:30;;;;;;;0.75;0.57;;;;;;;;;;4969902;28;20105;-85
2024/01/06 14:50:57;;;;;;;0.52;0.52;;;;;;;;;;4965360;28;20058;-85
2024/01/06 14:53:24;;;;;;;0.40;0.40;;;;;;;;;;4961695;28;20047;-85